• Join FlightAware (Why Join?)
  • Login
  • US Flag 
11:06AM EDT


 

Airport Tracker/Info


-or-


 

Live Flight TrackerFlight Track Log ✈ SWA3034 ✈ 04-May-2013 ✈ KABQ - KLAX

Flight Track Log - Related Links

Times and Time Zones

All times are in EDT time to prevent confusion due to time zone crossing. See the SWA3034 flight status page for this flight to view local times or setup timezone preferences in your user account.

Time Position Orientation Groundspeed Altitude Reporting Facility
EDT Latitude Longitude Course Direction KTS MPH feet Rate Location/Type
11:00AM 35.0833 -106.5144 53° Northeast 260 299 9,600  Level Albuquerque Center
11:01AM 35.1017 -106.5806 289° West 271 312 11,900 2,220 Climbing Albuquerque Center
11:02AM 35.0953 -106.6850 266° West 301 346 13,900 2,340 Climbing Albuquerque Center
11:03AM 35.1042 -106.8022 275° West 346 398 16,800 2,820 Climbing Albuquerque Center
11:04AM 35.1331 -106.9386 285° West 354 407 19,800 2,520 Climbing Albuquerque Center
11:05AM 35.1253 -107.0592 266° West 371 427 22,000 2,040 Climbing Albuquerque Center
11:06AM 35.1158 -107.1900 265° West 381 438 24,100 1,860 Climbing Albuquerque Center
11:07AM 35.1058 -107.3250 265° West 396 456 25,900 1,740 Climbing Albuquerque Center
11:08AM 35.0986 -107.4608 266° West 400 460 27,800 2,220 Climbing Albuquerque Center
11:10AM 35.0906 -107.6217 267° West 398 458 30,500 2,460 Climbing Albuquerque Center
11:11AM 35.1014 -107.7453 276° West 375 432 32,900 1,680 Climbing Albuquerque Center
11:12AM 35.1136 -107.8717 277° West 365 420 34,000 480 Climbing Albuquerque Center
11:13AM 35.1028 -107.9978 264° West 386 444 34,000  Level Albuquerque Center
11:14AM 35.0919 -108.1481 265° West 395 455 34,000  Level Albuquerque Center
11:15AM 35.0819 -108.2758 265° West 396 456 34,000  Level Albuquerque Center
11:16AM 35.0719 -108.4256 265° West 395 455 34,000  Level Albuquerque Center
11:17AM 35.0619 -108.5553 265° West 398 458 34,000  Level Albuquerque Center
11:18AM 35.0514 -108.7039 265° West 395 455 34,000  Level Albuquerque Center
11:19AM 35.0419 -108.8333 265° West 398 458 34,000  Level Albuquerque Center
11:20AM 35.0319 -108.9608 265° West 396 456 34,000  Level Albuquerque Center
11:21AM 35.0197 -109.1106 264° West 396 456 34,000  Level Albuquerque Center
11:22AM 35.0106 -109.2389 265° West 396 456 34,000  Level Albuquerque Center
11:23AM 34.9981 -109.3889 264° West 397 457 34,000  Level Albuquerque Center
11:24AM 34.9864 -109.5161 264° West 395 455 34,000  Level Albuquerque Center
11:25AM 34.9731 -109.6658 264° West 395 455 34,000  Level Albuquerque Center
11:26AM 34.9639 -109.7956 265° West 399 459 34,000  Level Albuquerque Center
11:27AM 34.9519 -109.9239 264° West 399 459 34,000  Level Albuquerque Center
11:28AM 34.9392 -110.0750 264° West 400 460 34,000  Level Albuquerque Center
11:29AM 34.9294 -110.2089 265° West 409 471 34,000  Level Albuquerque Center
11:30AM 34.9167 -110.3581 264° West 401 461 34,000  Level Albuquerque Center
11:31AM 34.9028 -110.4858 262° West 400 460 34,000  Level Albuquerque Center
11:32AM 34.8878 -110.6361 263° West 398 458 34,000  Level Albuquerque Center
11:33AM 34.8736 -110.7592 262° West 402 463 34,000  Level Albuquerque Center
11:34AM 34.8553 -110.8928 261° West 407 468 34,000  Level Albuquerque Center
11:35AM 34.8378 -111.0261 261° West 403 464 34,000  Level Albuquerque Center
11:36AM 34.8217 -111.1644 262° West 414 476 34,000  Level Albuquerque Center
11:37AM 34.7992 -111.3247 260° West 405 466 34,000  Level Albuquerque Center
11:38AM 34.7808 -111.4589 261° West 404 465 34,000  Level Albuquerque Center
11:39AM 34.7622 -111.5939 261° West 406 467 34,000  Level Albuquerque Center
11:40AM 34.7444 -111.7264 261° West 402 463 34,000  Level Albuquerque Center
11:41AM 34.7261 -111.8600 261° West 402 463 34,000  Level Albuquerque Center
11:43AM 34.7025 -112.0203 260° West 404 465 34,000  Level Albuquerque Center
11:44AM 34.6833 -112.1536 260° West 404 465 34,000  Level Albuquerque Center
11:45AM 34.6647 -112.2864 260° West 403 464 34,000  Level Albuquerque Center
11:46AM 34.6467 -112.4200 261° West 403 464 34,000  Level Albuquerque Center
11:47AM 34.6275 -112.5542 260° West 403 464 34,000  Level Albuquerque Center
11:48AM 34.6075 -112.6869 260° West 402 463 34,000  Level Albuquerque Center
11:49AM 34.5878 -112.8200 260° West 401 461 34,000  Level Albuquerque Center
11:50AM 34.5642 -112.9808 260° West 403 464 34,000  Level Albuquerque Center
11:51AM 34.5436 -113.1144 259° West 404 465 34,000  Level Albuquerque Center
11:52AM 34.5233 -113.2478 260° West 403 464 34,000  Level Albuquerque Center
11:53AM 34.5028 -113.3811 259° West 403 464 34,000  Level Albuquerque Center
11:54AM 34.4822 -113.5150 259° West 404 465 34,000  Level Albuquerque Center
11:55AM 34.4594 -113.6639 260° West 405 466 34,000  Level Albuquerque Center
11:56AM 34.4381 -113.7983 259° West 405 466 34,000  Level Albuquerque Center
11:57AM 34.4169 -113.9308 259° West 403 464 34,000  Level Albuquerque Center
11:58AM 34.3964 -114.0653 260° West 404 465 34,000  Level Albuquerque Center
11:59AM 34.3739 -114.1983 258° West 404 465 34,000  Level Albuquerque Center
12:00PM 34.3539 -114.3314 260° West 402 463 34,000  Level Albuquerque Center
12:00PM 34.3439 -114.3944 259° West 404 465 34,000  Level Los Angeles Center
12:01PM 34.3225 -114.5272 259° West 405 466 34,000  Level Los Angeles Center
12:02PM 34.3003 -114.6597 259° West 403 464 34,000  Level Los Angeles Center
12:03PM 34.2783 -114.7919 259° West 402 463 34,000  Level Los Angeles Center
12:04PM 34.2567 -114.9256 259° West 405 466 34,000 -60 Level Los Angeles Center
12:05PM 34.2347 -115.0592 259° West 408 470 33,900 -540 Descending Los Angeles Center
12:07PM 34.2117 -115.1917 258° West 405 466 32,900 -1,080 Descending Los Angeles Center
12:08PM 34.1792 -115.3758 258° West 403 464 31,500 -1,140 Descending Los Angeles Center
12:09PM 34.1578 -115.5089 259° West 405 466 30,600 -780 Descending Los Angeles Center
12:10PM 34.1342 -115.6431 258° West 408 470 29,900 -300 Descending Los Angeles Center
12:11PM 34.1111 -115.7761 258° West 407 468 30,000  Climbing Los Angeles Center
12:12PM 34.0925 -115.9069 260° West 400 460 30,000  Level Los Angeles Center
12:13PM 34.0739 -116.0375 260° West 397 457 30,000 -600 Level Los Angeles Center
12:14PM 34.0506 -116.1928 260° West 395 455 28,800 -1,080 Descending Los Angeles Center
12:15PM 34.0358 -116.2947 260° West 389 448 27,900 -1,080 Descending Los Angeles Center
12:16PM 34.0133 -116.4481 260° West 388 447 26,700 -1,020 Descending Los Angeles Center
12:17PM 33.9992 -116.5753 262° West 387 445 25,800 -960 Descending Los Angeles Center
12:18PM 33.9881 -116.7017 264° West 384 442 24,800 -1,920 Descending Los Angeles Center
12:19PM 33.9753 -116.8536 264° West 382 440 21,900 -2,520 Descending Los Angeles Center
12:20PM 33.9658 -116.9736 265° West 365 420 19,600 -2,280 Descending Los Angeles Center
12:21PM 33.9500 -117.1000 261° West 344 396 17,100 -1,680 Descending Southern California TRACON
12:22PM 33.9500 -117.2167 270° West 309 356 16,200 -600 Descending Southern California TRACON
12:23PM 33.9333 -117.3167 259° West 302 348 16,000 -120 Descending Southern California TRACON
12:24PM 33.9333 -117.4167 270° West 311 358 16,000 -420 Level Southern California TRACON
12:25PM 33.9167 -117.5167 259° West 323 372 15,200 -1,380 Descending Southern California TRACON
12:26PM 33.9333 -117.6167 281° West 325 374 13,300 -1,140 Descending Southern California TRACON
12:27PM 33.9500 -117.7167 281° West 308 354 13,000 -180 Descending Southern California TRACON
12:28PM 33.9667 -117.8167 281° West 295 339 13,000  Level Southern California TRACON
12:29PM 33.9667 -117.9167 270° West 289 333 13,000 -420 Level Southern California TRACON
12:30PM 33.9833 -118.0167 281° West 299 344 12,200 -900 Descending Southern California TRACON
12:31PM 33.9667 -118.1167 259° West 301 346 11,200 -1,260 Descending Southern California TRACON
12:32PM 33.9500 -118.2167 259° West 286 329 9,700 -1,440 Descending Southern California TRACON
12:33PM 33.9667 -118.3167 281° West 275 316 8,400 -840 Descending Southern California TRACON
12:34PM 34.0000 -118.4167 292° West 317 365 8,000 -240 Descending Southern California TRACON
12:35PM 34.0167 -118.5000 284° West 285 328 8,000  Level Southern California TRACON
12:36PM 34.0161 -118.5153 267° West 293 337 8,000 -480 Level Los Angeles Center
12:37PM 34.0061 -118.6189 263° West 291 335 7,300 -780 Descending Los Angeles Center
12:38PM 33.9964 -118.7283 264° West 268 308 6,300 -1,020 Descending Los Angeles Center
12:39PM 33.9756 -118.7975 250° West 231 266 5,300 -1,020 Descending Los Angeles Center
12:40PM 33.9375 -118.7586 140° Southeast 204 235 4,300 -780 Descending Los Angeles Center
12:41PM 33.9236 -118.6892 104° East 212 244 3,700 -600 Descending Los Angeles Center
12:42PM 33.9308 -118.6114 84° East 217 250 3,100 -840 Descending Los Angeles Center
12:43PM 33.9378 -118.5450 83° East 201 231 2,000 -1,020 Descending Los Angeles Center
12:44PM 33.9444 -118.4814 83° East 176 203 1,000 -900 Descending Los Angeles Center
12:45PM 33.9483 -118.4358 84° East 140 161 200 -780 Descending Los Angeles Center